createdAt,value
2019-02-10T00:00:30.051Z,1.10
2019-02-10T00:03:00.043Z,1.40
2019-02-10T00:05:30.051Z,1.27
2019-02-10T00:08:00.053Z,1.40
2019-02-10T00:10:30.082Z,1.50
2019-02-10T00:13:38.092Z,1.20
2019-02-10T00:16:16.514Z,1.47
2019-02-10T00:18:46.513Z,1.20
2019-02-10T00:21:16.537Z,1.10
2019-02-10T00:23:46.642Z,1.30
2019-02-10T00:26:16.655Z,1.53
2019-02-10T00:28:46.977Z,1.60
2019-02-10T00:31:17.013Z,1.50
2019-02-10T00:33:47.031Z,1.50
2019-02-10T00:36:17.487Z,1.40
2019-02-10T00:38:47.487Z,1.90
2019-02-10T00:41:17.957Z,1.23
2019-02-10T00:43:47.956Z,1.30
2019-02-10T00:46:18.304Z,1.50
2019-02-10T00:48:48.293Z,1.37
2019-02-10T00:51:18.335Z,1.37
2019-02-10T00:53:48.361Z,1.40
2019-02-10T00:56:18.381Z,1.60
2019-02-10T00:58:48.365Z,1.37
2019-02-10T01:01:18.432Z,1.43
2019-02-10T01:03:48.544Z,1.60
2019-02-10T01:06:18.589Z,1.30
2019-02-10T01:08:48.577Z,1.40
2019-02-10T01:11:18.892Z,1.20
2019-02-10T01:13:49.286Z,1.37
2019-02-10T01:16:19.307Z,1.47
2019-02-10T01:19:06.172Z,1.50
2019-02-10T01:21:36.418Z,1.30
2019-02-10T01:24:07.473Z,1.30
2019-02-10T01:26:37.572Z,1.30
2019-02-10T01:29:08.911Z,1.47
2019-02-10T01:31:39.395Z,1.43
2019-02-10T01:34:09.379Z,1.40
2019-02-10T01:36:40.059Z,1.73
2019-02-10T01:39:19.171Z,1.40
2019-02-10T01:41:49.166Z,1.63
2019-02-10T01:44:19.155Z,1.47
2019-02-10T01:46:49.547Z,1.77
2019-02-10T01:49:19.560Z,1.53
2019-02-10T01:51:49.651Z,1.27
2019-02-10T01:54:19.646Z,1.50
2019-02-10T01:56:49.719Z,1.10
2019-02-10T01:59:20.068Z,1.77
2019-02-10T02:01:50.077Z,1.50
2019-02-10T02:04:20.171Z,1.40
2019-02-10T02:06:57.687Z,1.60
2019-02-10T02:09:24.825Z,1.37
2019-02-10T02:11:55.220Z,1.20
2019-02-10T02:14:25.232Z,1.30
2019-02-10T02:16:55.306Z,1.30
2019-02-10T02:19:25.296Z,1.30
2019-02-10T02:21:55.300Z,1.20
2019-02-10T02:24:25.292Z,1.33
2019-02-10T02:26:55.630Z,1.27
2019-02-10T02:29:25.634Z,1.50
2019-02-10T02:31:55.665Z,1.77
2019-02-10T02:34:26.104Z,1.27
2019-02-10T02:36:56.424Z,1.30
2019-02-10T02:39:29.529Z,1.63
2019-02-10T02:41:59.966Z,1.67
2019-02-10T02:44:30.464Z,1.93
2019-02-10T02:47:00.495Z,1.80
2019-02-10T02:49:30.678Z,1.83
2019-02-10T02:52:00.699Z,1.37
2019-02-10T02:54:31.845Z,1.57
2019-02-10T02:57:01.877Z,1.30
2019-02-10T02:59:32.270Z,1.30
2019-02-10T03:02:02.632Z,1.17
2019-02-10T03:04:32.560Z,1.20
2019-02-10T03:07:02.625Z,1.40
2019-02-10T03:09:32.632Z,1.27
2019-02-10T03:12:02.628Z,1.30
2019-02-10T03:14:33.606Z,1.20
2019-02-10T03:17:03.614Z,1.57
2019-02-10T03:19:33.610Z,1.10
2019-02-10T03:22:03.632Z,1.73
2019-02-10T03:24:33.902Z,1.20
2019-02-10T03:27:04.364Z,1.20
2019-02-10T03:29:34.373Z,1.57
2019-02-10T03:32:04.759Z,1.40
2019-02-10T03:34:35.165Z,1.23
2019-02-10T03:37:05.186Z,1.20
2019-02-10T03:39:35.180Z,1.00
2019-02-10T03:42:05.208Z,1.40
2019-02-10T03:44:35.279Z,1.30
2019-02-10T03:47:05.284Z,1.10
2019-02-10T03:49:35.629Z,1.10
2019-02-10T03:52:05.635Z,1.00
2019-02-10T03:54:35.625Z,0.83
2019-02-10T03:57:06.072Z,1.10
2019-02-10T03:59:37.711Z,1.30
2019-02-10T04:02:07.707Z,1.00
2019-02-10T04:04:37.728Z,1.30
2019-02-10T04:07:07.700Z,0.97
2019-02-10T04:09:37.747Z,1.07
2019-02-10T04:12:07.816Z,1.00
2019-02-10T04:14:37.858Z,1.10
2019-02-10T04:17:07.878Z,1.10
2019-02-10T04:19:37.914Z,1.10
2019-02-10T04:22:07.898Z,1.00
2019-02-10T04:24:38.297Z,1.00
2019-02-10T04:27:08.362Z,1.10
2019-02-10T04:29:38.397Z,1.20
2019-02-10T04:32:08.373Z,1.23
2019-02-10T04:34:38.386Z,1.00
2019-02-10T04:37:08.384Z,1.10
2019-02-10T04:39:38.391Z,0.97
2019-02-10T04:42:08.402Z,1.30
2019-02-10T04:44:38.439Z,1.00
2019-02-10T04:47:08.816Z,1.20
2019-02-10T04:49:38.828Z,1.10
2019-02-10T04:52:08.833Z,1.30
2019-02-10T04:54:38.849Z,1.07
2019-02-10T04:57:08.871Z,1.10
2019-02-10T04:59:38.877Z,1.10
2019-02-10T05:02:08.926Z,1.10
2019-02-10T05:04:40.484Z,1.10
2019-02-10T05:07:10.789Z,1.30
2019-02-10T05:09:40.832Z,1.20
2019-02-10T05:12:10.809Z,1.10
2019-02-10T05:14:40.808Z,1.30
2019-02-10T05:17:11.077Z,1.07
2019-02-10T05:19:41.103Z,1.10
2019-02-10T05:22:11.503Z,0.93
2019-02-10T05:24:41.535Z,1.10
2019-02-10T05:27:11.517Z,1.20
2019-02-10T05:29:41.527Z,1.30
2019-02-10T05:32:11.869Z,1.40
2019-02-10T05:34:41.909Z,1.00
2019-02-10T05:37:11.910Z,0.80
2019-02-10T05:39:41.916Z,0.87
2019-02-10T05:42:11.883Z,0.90
2019-02-10T05:44:42.203Z,1.13
2019-02-10T05:47:12.174Z,0.90
2019-02-10T05:49:42.175Z,0.97
2019-02-10T05:52:12.182Z,0.80
2019-02-10T05:54:42.193Z,1.40
2019-02-10T05:57:12.494Z,0.80
2019-02-10T05:59:42.507Z,1.10
2019-02-10T06:02:23.532Z,1.07
2019-02-10T06:04:53.553Z,0.93
2019-02-10T06:07:23.550Z,1.07
2019-02-10T06:09:53.551Z,1.20
2019-02-10T06:12:23.552Z,0.90
2019-02-10T06:14:53.559Z,0.80
2019-02-10T06:17:23.574Z,1.10
2019-02-10T06:19:53.604Z,0.90
2019-02-10T06:22:23.608Z,1.27
2019-02-10T06:24:53.617Z,1.20
2019-02-10T06:27:23.608Z,1.30
2019-02-10T06:29:54.670Z,1.20
2019-02-10T06:32:26.442Z,1.10
2019-02-10T06:34:56.447Z,1.10
2019-02-10T06:37:26.438Z,1.07
2019-02-10T06:39:56.372Z,0.93
2019-02-10T06:42:26.367Z,1.13
2019-02-10T06:44:56.730Z,0.67
2019-02-10T06:47:26.747Z,1.23
2019-02-10T06:49:57.064Z,1.70
2019-02-10T06:52:27.082Z,1.53
2019-02-10T06:54:57.399Z,1.10
2019-02-10T06:57:27.756Z,1.23
2019-02-10T07:00:15.642Z,1.23
2019-02-10T07:03:24.982Z,1.13
2019-02-10T07:05:55.042Z,1.17
2019-02-10T07:08:30.425Z,1.20
2019-02-10T07:10:56.731Z,1.27
2019-02-10T07:13:38.936Z,1.10
2019-02-10T07:16:51.635Z,1.23
2019-02-10T07:19:57.962Z,1.17
2019-02-10T07:23:21.777Z,1.30
2019-02-10T07:25:56.286Z,1.27
2019-02-10T07:28:57.871Z,1.20
2019-02-10T07:31:58.664Z,1.10
2019-02-10T07:35:09.154Z,1.30
2019-02-10T07:38:07.508Z,1.80
2019-02-10T07:41:45.630Z,1.17
2019-02-10T07:44:40.506Z,1.87
2019-02-10T07:47:22.135Z,0.93
2019-02-10T07:50:16.237Z,1.10
2019-02-10T07:53:07.506Z,1.40
2019-02-10T07:56:02.431Z,1.10
2019-02-10T07:58:58.907Z,2.20
2019-02-10T08:01:49.077Z,1.20
2019-02-10T08:04:54.989Z,1.03
2019-02-10T08:07:52.989Z,1.30
2019-02-10T08:10:59.131Z,1.30
2019-02-10T08:13:40.523Z,1.50
2019-02-10T08:16:47.588Z,1.60
2019-02-10T08:19:52.022Z,1.57
2019-02-10T08:22:53.737Z,1.40
2019-02-10T08:25:44.760Z,1.57
2019-02-10T08:28:47.345Z,2.10
2019-02-10T08:32:06.185Z,1.20
2019-02-10T08:35:15.735Z,1.30
2019-02-10T08:38:26.562Z,1.57
2019-02-10T08:41:38.439Z,1.60
2019-02-10T08:44:46.881Z,1.63
2019-02-10T08:47:46.075Z,1.50
2019-02-10T08:50:31.143Z,1.60
2019-02-10T08:53:17.978Z,1.50
2019-02-10T08:55:48.582Z,2.03
2019-02-10T08:58:19.395Z,1.70
2019-02-10T09:00:49.418Z,1.60
2019-02-10T09:03:19.947Z,1.73
2019-02-10T09:05:50.705Z,1.70
2019-02-10T09:08:20.777Z,1.70
2019-02-10T09:10:50.803Z,3.03
2019-02-10T09:13:21.149Z,1.90
2019-02-10T09:15:51.163Z,1.77
2019-02-10T09:18:21.235Z,1.80
2019-02-10T09:20:51.319Z,1.73
2019-02-10T09:23:21.378Z,2.00
2019-02-10T09:25:51.393Z,1.53
2019-02-10T09:28:21.435Z,1.50
2019-02-10T09:30:51.541Z,1.43
2019-02-10T09:33:21.954Z,1.50
2019-02-10T09:35:52.177Z,1.40
2019-02-10T09:38:22.235Z,1.73
2019-02-10T09:40:52.324Z,1.50
2019-02-10T09:43:22.534Z,1.60
2019-02-10T09:45:52.530Z,1.50
2019-02-10T09:48:22.523Z,1.30
2019-02-10T09:50:53.858Z,1.40
2019-02-10T09:53:24.335Z,1.60
2019-02-10T09:55:55.013Z,1.90
2019-02-10T09:58:25.735Z,1.30
2019-02-10T10:00:55.883Z,1.70
2019-02-10T10:03:26.251Z,1.47
2019-02-10T10:05:56.310Z,1.70
2019-02-10T10:08:26.379Z,1.40
2019-02-10T10:10:56.409Z,1.10
2019-02-10T10:13:26.427Z,2.23
2019-02-10T10:15:56.803Z,1.80
2019-02-10T10:18:26.989Z,1.87
2019-02-10T10:20:57.006Z,1.80
2019-02-10T10:23:27.030Z,1.83
2019-02-10T10:25:56.998Z,1.83
2019-02-10T10:28:27.083Z,1.60
2019-02-10T10:30:57.162Z,2.00
2019-02-10T10:33:27.204Z,1.60
2019-02-10T10:35:57.200Z,1.80
2019-02-10T10:38:27.214Z,1.80
2019-02-10T10:40:57.216Z,1.70
2019-02-10T10:43:27.215Z,1.90
2019-02-10T10:45:57.231Z,2.00
2019-02-10T10:48:27.510Z,2.00
2019-02-10T10:50:57.840Z,1.70
2019-02-10T10:53:27.959Z,1.67
2019-02-10T10:55:58.596Z,1.60
2019-02-10T10:58:28.663Z,2.03
2019-02-10T11:00:58.669Z,1.70
2019-02-10T11:03:28.889Z,2.10
2019-02-10T11:05:58.892Z,2.03
2019-02-10T11:08:28.901Z,2.20
2019-02-10T11:10:58.996Z,1.60
2019-02-10T11:13:29.396Z,1.57
2019-02-10T11:15:59.852Z,1.70
2019-02-10T11:18:29.859Z,1.77
2019-02-10T11:21:00.051Z,1.70
2019-02-10T11:23:30.048Z,2.30
2019-02-10T11:26:00.259Z,1.97
2019-02-10T11:28:30.258Z,1.70
2019-02-10T11:31:00.296Z,1.50
2019-02-10T11:33:30.991Z,1.70
2019-02-10T11:36:01.006Z,1.93
2019-02-10T11:38:30.996Z,1.93
2019-02-10T11:41:01.444Z,2.00
2019-02-10T11:43:31.427Z,1.93
2019-02-10T11:46:01.446Z,1.87
2019-02-10T11:48:31.983Z,1.67
2019-02-10T11:51:02.035Z,1.70
2019-02-10T11:53:32.024Z,1.80
2019-02-10T11:56:02.363Z,1.87
2019-02-10T11:58:32.807Z,1.90
2019-02-10T12:01:03.355Z,1.73
2019-02-10T12:03:33.354Z,1.47
2019-02-10T12:06:03.376Z,1.60
2019-02-10T12:08:35.795Z,1.70
2019-02-10T12:11:05.105Z,1.50
2019-02-10T12:13:35.168Z,1.40
2019-02-10T12:16:05.878Z,1.87
2019-02-10T12:18:35.875Z,1.67
2019-02-10T12:21:05.881Z,1.60
2019-02-10T12:23:36.233Z,1.63
2019-02-10T12:26:06.251Z,1.70
2019-02-10T12:28:36.259Z,2.10
2019-02-10T12:31:06.255Z,1.43
2019-02-10T12:33:36.254Z,1.50
2019-02-10T12:36:06.632Z,1.67
2019-02-10T12:38:37.805Z,1.83
2019-02-10T12:41:08.198Z,1.43
2019-02-10T12:43:38.689Z,1.53
2019-02-10T12:46:09.017Z,1.70
2019-02-10T12:52:14.399Z,1.37
2019-02-10T12:54:44.386Z,1.37
2019-02-10T12:57:26.737Z,1.90
2019-02-10T12:59:56.781Z,1.77
2019-02-10T13:02:27.108Z,1.60
2019-02-10T13:04:57.192Z,1.73
2019-02-10T13:07:27.615Z,1.63
2019-02-10T13:09:57.621Z,1.53
2019-02-10T13:12:27.660Z,1.70
2019-02-10T13:14:57.701Z,1.33
2019-02-10T13:17:27.766Z,2.00
2019-02-10T13:19:58.482Z,1.77
2019-02-10T13:22:28.850Z,1.33
2019-02-10T13:24:58.934Z,1.50
2019-02-10T13:27:28.937Z,2.13
2019-02-10T13:29:59.057Z,1.90
2019-02-10T13:32:29.076Z,6.80
2019-02-10T13:34:59.486Z,4.87
2019-02-10T13:37:29.843Z,3.40
2019-02-10T13:40:00.272Z,2.00
2019-02-10T13:42:31.010Z,1.70
2019-02-10T13:45:01.041Z,2.50
2019-02-10T13:47:31.038Z,2.80
2019-02-10T13:50:01.514Z,1.90
2019-02-10T13:52:47.266Z,2.13
2019-02-10T13:55:17.295Z,2.80
2019-02-10T13:57:47.286Z,2.57
2019-02-10T14:00:18.839Z,1.80
2019-02-10T14:02:48.828Z,3.10
2019-02-10T14:05:18.915Z,1.70
2019-02-10T14:07:50.703Z,1.63
2019-02-10T14:10:25.576Z,1.50
2019-02-10T14:12:52.355Z,1.70
2019-02-10T14:15:22.457Z,1.53
2019-02-10T14:17:52.557Z,1.80
2019-02-10T14:20:22.610Z,1.80
2019-02-10T14:22:52.973Z,1.43
2019-02-10T14:25:23.005Z,1.60
2019-02-10T14:27:53.041Z,2.10
2019-02-10T14:30:23.362Z,2.30
2019-02-10T14:32:53.698Z,2.07
2019-02-10T14:35:23.759Z,2.17
2019-02-10T14:37:53.774Z,2.23
2019-02-10T14:40:23.882Z,2.50
2019-02-10T14:42:53.927Z,2.13
2019-02-10T14:45:24.228Z,2.07
2019-02-10T14:47:54.244Z,2.20
2019-02-10T14:50:24.567Z,2.03
2019-02-10T14:52:54.605Z,2.40
2019-02-10T14:55:24.703Z,2.63
2019-02-10T14:57:54.751Z,2.70
2019-02-10T15:00:24.864Z,3.00
2019-02-10T15:02:54.891Z,2.50
2019-02-10T15:05:25.268Z,2.67
2019-02-10T15:07:55.672Z,2.57
2019-02-10T15:10:25.686Z,2.20
2019-02-10T15:12:56.509Z,2.93
2019-02-10T15:15:26.592Z,2.83
2019-02-10T15:17:56.588Z,2.83
2019-02-10T15:20:26.881Z,2.87
2019-02-10T15:22:56.976Z,3.00
2019-02-10T15:25:28.169Z,2.80
2019-02-10T15:27:58.381Z,2.73
2019-02-10T15:30:28.403Z,2.97
2019-02-10T15:32:58.887Z,3.30
2019-02-10T15:35:29.166Z,2.60
2019-02-10T15:37:59.530Z,2.57
2019-02-10T15:40:29.585Z,2.90
2019-02-10T15:43:00.072Z,2.70
2019-02-10T15:45:30.126Z,2.90
2019-02-10T15:48:00.151Z,2.50
2019-02-10T15:50:30.434Z,2.40
2019-02-10T15:53:00.567Z,2.17
2019-02-10T15:55:30.690Z,2.83
2019-02-10T15:58:01.086Z,2.10
2019-02-10T16:00:31.263Z,1.80
2019-02-10T16:03:01.254Z,1.77
2019-02-10T16:05:31.276Z,1.73
2019-02-10T16:08:01.674Z,2.07
2019-02-10T16:10:32.207Z,2.20
2019-02-10T16:13:02.243Z,2.70
2019-02-10T16:15:32.263Z,1.70
2019-02-10T16:18:02.687Z,1.53
2019-02-10T16:20:32.993Z,1.67
2019-02-10T16:23:02.987Z,1.70
2019-02-10T16:25:33.142Z,2.00
2019-02-10T16:28:03.156Z,2.40
2019-02-10T16:30:33.335Z,1.93
2019-02-10T16:33:03.405Z,1.70
2019-02-10T16:35:33.841Z,2.17
2019-02-10T16:38:04.870Z,2.40
2019-02-10T16:40:34.973Z,1.90
2019-02-10T16:43:05.014Z,2.20
2019-02-10T16:45:35.010Z,2.20
2019-02-10T16:48:05.117Z,1.80
2019-02-10T16:50:35.571Z,1.60
2019-02-10T16:53:05.580Z,2.07
2019-02-10T16:55:35.684Z,1.90
2019-02-10T16:58:05.760Z,1.40
2019-02-10T17:00:35.816Z,2.60
2019-02-10T17:03:07.702Z,1.93
2019-02-10T17:05:37.554Z,2.27
2019-02-10T17:08:07.593Z,1.50
2019-02-10T17:10:37.615Z,1.53
2019-02-10T17:13:07.765Z,1.70
2019-02-10T17:15:37.778Z,1.80
2019-02-10T17:18:08.183Z,2.27
2019-02-10T17:20:38.225Z,2.10
2019-02-10T17:23:08.321Z,2.33
2019-02-10T17:25:38.803Z,2.00
2019-02-10T17:28:08.980Z,2.00
2019-02-10T17:30:39.206Z,1.40
2019-02-10T17:33:09.669Z,1.30
2019-02-10T17:35:39.697Z,1.40
2019-02-10T17:38:09.740Z,1.33
2019-02-10T17:40:54.504Z,1.90
2019-02-10T17:43:28.157Z,1.60
2019-02-10T17:45:56.266Z,1.30
2019-02-10T17:48:26.284Z,1.53
2019-02-10T17:50:56.711Z,1.40
2019-02-10T17:53:27.154Z,1.73
2019-02-10T17:55:57.908Z,2.00
2019-02-10T17:58:27.982Z,1.50
2019-02-10T18:00:58.371Z,1.37
2019-02-10T18:03:28.885Z,1.27
2019-02-10T18:05:58.894Z,1.00
2019-02-10T18:08:29.208Z,1.33
2019-02-10T18:10:59.285Z,1.17
2019-02-10T18:13:29.291Z,1.23
2019-02-10T18:16:31.263Z,0.90
2019-02-10T18:19:17.607Z,0.97
2019-02-10T18:22:09.438Z,0.70
2019-02-10T18:25:06.253Z,0.60
2019-02-10T18:27:43.231Z,0.50
2019-02-10T18:30:32.651Z,0.90
2019-02-10T18:33:21.844Z,0.73
2019-02-10T18:36:16.867Z,0.70
2019-02-10T18:39:01.833Z,0.70
2019-02-10T18:41:52.944Z,0.57
2019-02-10T18:44:39.887Z,0.70
2019-02-10T18:47:35.199Z,0.50
2019-02-10T18:50:25.565Z,0.50
2019-02-10T18:53:14.932Z,0.60
2019-02-10T18:56:04.222Z,0.60
2019-02-10T18:59:05.589Z,0.60
2019-02-10T19:01:45.407Z,0.60
2019-02-10T19:04:32.561Z,0.70
2019-02-10T19:07:24.339Z,0.50
2019-02-10T19:10:19.884Z,0.50
2019-02-10T19:13:12.001Z,0.50
2019-02-10T19:15:54.327Z,0.50
2019-02-10T19:18:49.520Z,0.67
2019-02-10T19:21:41.752Z,0.70
2019-02-10T19:24:29.807Z,0.83
2019-02-10T19:27:28.457Z,0.70
2019-02-10T19:30:15.148Z,0.60
2019-02-10T19:32:50.240Z,0.80
2019-02-10T19:35:42.310Z,1.00
2019-02-10T19:38:34.281Z,0.70
2019-02-10T19:41:22.104Z,0.70
2019-02-10T19:44:18.579Z,1.20
2019-02-10T19:47:00.452Z,0.53
2019-02-10T19:49:56.829Z,0.90
2019-02-10T19:52:55.597Z,0.50
2019-02-10T19:55:31.443Z,0.60
2019-02-10T19:58:20.504Z,1.27
2019-02-10T20:01:09.214Z,0.70
2019-02-10T20:03:53.178Z,0.90
2019-02-10T20:06:30.988Z,0.60
2019-02-10T20:09:20.779Z,0.60
2019-02-10T20:12:10.577Z,0.60
2019-02-10T20:14:59.636Z,0.70
2019-02-10T20:18:07.956Z,0.70
2019-02-10T20:20:46.755Z,0.60
2019-02-10T20:23:23.252Z,1.07
2019-02-10T20:26:10.901Z,0.57
2019-02-10T20:28:54.209Z,0.73
2019-02-10T20:31:45.547Z,0.80
2019-02-10T20:34:32.753Z,0.70
2019-02-10T20:37:20.742Z,0.80
2019-02-10T20:40:00.117Z,1.20
2019-02-10T20:42:40.559Z,1.00
2019-02-10T20:45:24.510Z,0.90
2019-02-10T20:48:12.798Z,0.70
2019-02-10T20:51:06.315Z,0.60
2019-02-10T20:53:48.914Z,0.50
2019-02-10T20:56:24.054Z,0.60
2019-02-10T20:58:59.609Z,0.50
2019-02-10T21:01:54.738Z,0.50
2019-02-10T21:04:44.179Z,0.70
2019-02-10T21:07:23.927Z,0.50
2019-02-10T21:10:13.068Z,0.60
2019-02-10T21:12:58.863Z,0.60
2019-02-10T21:15:45.375Z,0.60
2019-02-10T21:18:27.582Z,0.70
2019-02-10T21:21:22.679Z,0.60
2019-02-10T21:24:01.826Z,0.70
2019-02-10T21:26:56.740Z,0.50
2019-02-10T21:30:03.829Z,0.50
2019-02-10T21:32:51.713Z,0.50
2019-02-10T21:35:37.310Z,0.60
2019-02-10T21:38:24.743Z,0.50
2019-02-10T21:41:05.112Z,0.70
2019-02-10T21:43:49.888Z,0.80
2019-02-10T21:46:29.494Z,0.60
2019-02-10T21:49:06.257Z,0.60
2019-02-10T21:51:36.696Z,0.50
2019-02-10T21:54:06.993Z,0.50
2019-02-10T21:56:37.133Z,0.50
2019-02-10T21:59:07.481Z,0.50
2019-02-10T22:01:38.311Z,0.50
2019-02-10T22:04:08.299Z,0.50
2019-02-10T22:06:38.359Z,0.50
2019-02-10T22:09:08.445Z,0.50
2019-02-10T22:11:38.559Z,0.50
2019-02-10T22:14:08.579Z,0.60
2019-02-10T22:16:38.569Z,0.50
2019-02-10T22:19:08.596Z,0.50
2019-02-10T22:21:38.582Z,0.50
2019-02-10T22:24:08.944Z,0.50
2019-02-10T22:26:39.000Z,0.50
2019-02-10T22:29:09.000Z,0.60
2019-02-10T22:31:39.023Z,0.50
2019-02-10T22:34:09.679Z,0.60
2019-02-10T22:36:39.675Z,0.70
2019-02-10T22:39:09.679Z,0.50
2019-02-10T22:41:40.004Z,0.70
2019-02-10T22:44:09.998Z,0.50
2019-02-10T22:46:40.347Z,0.60
2019-02-10T22:49:10.316Z,0.50
2019-02-10T22:51:40.313Z,0.60
2019-02-10T22:54:11.007Z,0.93
2019-02-10T22:56:41.027Z,0.43
2019-02-10T22:59:10.998Z,0.60
2019-02-10T23:01:41.027Z,0.50
2019-02-10T23:04:11.048Z,0.50
2019-02-10T23:06:41.399Z,0.70
2019-02-10T23:09:20.152Z,0.50
2019-02-10T23:11:50.172Z,0.50
2019-02-10T23:14:20.249Z,0.50
2019-02-10T23:16:50.268Z,0.40
2019-02-10T23:19:20.300Z,0.40
2019-02-10T23:21:50.327Z,0.57
2019-02-10T23:24:20.336Z,0.40
2019-02-10T23:26:50.350Z,0.50
2019-02-10T23:29:20.212Z,0.60
2019-02-10T23:31:50.260Z,0.70
2019-02-10T23:34:20.636Z,0.80
2019-02-10T23:36:50.659Z,0.70
2019-02-10T23:39:20.654Z,0.50
2019-02-10T23:41:51.356Z,0.50
2019-02-10T23:44:21.340Z,0.70
2019-02-10T23:46:51.354Z,0.50
2019-02-10T23:49:21.666Z,0.50
2019-02-10T23:51:51.695Z,0.50
2019-02-10T23:54:21.776Z,0.50
2019-02-10T23:56:51.774Z,0.50
2019-02-10T23:59:21.940Z,0.80
